createdAt,value
2022-09-02T00:01:20.110Z,101819.63
2022-09-02T00:03:47.218Z,101819.19
2022-09-02T00:06:14.440Z,101821.09
2022-09-02T00:08:41.801Z,101815.84
2022-09-02T00:11:09.743Z,101814.78
2022-09-02T00:13:38.332Z,101812.78
2022-09-02T00:16:06.362Z,101818.22
2022-09-02T00:18:33.536Z,101808.66
2022-09-02T00:21:00.504Z,101806.13
2022-09-02T00:23:27.513Z,101809.59
2022-09-02T00:25:54.048Z,101803.25
2022-09-02T00:28:20.725Z,101798.09
2022-09-02T00:30:48.277Z,101805.28
2022-09-02T00:33:15.185Z,101800.31
2022-09-02T00:35:42.541Z,101809.25
2022-09-02T00:38:09.165Z,101805.13
2022-09-02T00:40:36.759Z,101795.31
2022-09-02T00:43:07.449Z,101798.59
2022-09-02T00:45:34.439Z,101796.44
2022-09-02T00:48:00.851Z,101796.56
2022-09-02T00:50:34.299Z,101790.16
2022-09-02T00:53:08.328Z,101792.25
2022-09-02T00:55:44.887Z,101794.13
2022-09-02T00:58:22.433Z,101785.00
2022-09-02T01:00:53.128Z,101791.19
2022-09-02T01:03:21.803Z,101786.16
2022-09-02T01:05:50.361Z,101773.13
2022-09-02T01:08:21.045Z,101779.53
2022-09-02T01:10:48.047Z,101773.94
2022-09-02T01:13:18.245Z,101771.47
2022-09-02T01:15:48.725Z,101774.06
2022-09-02T01:18:20.694Z,101773.13
2022-09-02T01:20:47.712Z,101767.22
2022-09-02T01:23:16.993Z,101773.00
2022-09-02T01:25:44.298Z,101771.25
2022-09-02T01:28:14.620Z,101768.63
2022-09-02T01:30:44.085Z,101778.69
2022-09-02T01:33:10.957Z,101767.81
2022-09-02T01:35:38.539Z,101770.34
2022-09-02T01:38:05.525Z,101775.81
2022-09-02T01:40:32.819Z,101766.50
2022-09-02T01:43:07.518Z,101768.00
2022-09-02T01:45:35.719Z,101753.25
2022-09-02T01:48:03.508Z,101756.38
2022-09-02T01:50:30.958Z,101758.47
2022-09-02T01:52:59.070Z,101756.38
2022-09-02T01:55:25.581Z,101754.03
2022-09-02T01:57:52.012Z,101760.34
2022-09-02T02:00:18.834Z,101752.53
2022-09-02T02:02:45.203Z,101748.34
2022-09-02T02:05:11.907Z,101745.78
2022-09-02T02:07:38.276Z,101746.00
2022-09-02T02:10:05.850Z,101751.06
2022-09-02T02:12:32.240Z,101752.19
2022-09-02T02:15:01.820Z,101750.13
2022-09-02T02:17:28.182Z,101748.09
2022-09-02T02:19:54.562Z,101749.00
2022-09-02T02:22:20.973Z,101746.84
2022-09-02T02:24:47.399Z,101745.63
2022-09-02T02:27:13.889Z,101748.47
2022-09-02T02:29:40.326Z,101742.47
2022-09-02T02:32:08.002Z,101744.88
2022-09-02T02:34:35.066Z,101741.50
2022-09-02T02:37:01.506Z,101740.97
2022-09-02T02:39:27.932Z,101741.16
2022-09-02T02:41:54.375Z,101735.78
2022-09-02T02:44:20.826Z,101734.84
2022-09-02T02:46:47.321Z,101741.66
2022-09-02T02:49:13.833Z,101741.34
2022-09-02T02:51:40.626Z,101730.09
2022-09-02T02:54:07.103Z,101733.75
2022-09-02T02:56:33.626Z,101734.69
2022-09-02T02:59:03.206Z,101726.00
2022-09-02T03:01:31.070Z,101729.47
2022-09-02T03:03:57.576Z,101727.53
2022-09-02T03:06:26.740Z,101726.97
2022-09-02T03:08:53.547Z,101733.19
2022-09-02T03:11:22.472Z,101728.31
2022-09-02T03:13:50.501Z,101726.69
2022-09-02T03:16:19.538Z,101726.88
2022-09-02T03:18:47.450Z,101715.16
2022-09-02T03:21:15.972Z,101714.50
2022-09-02T03:23:43.130Z,101719.09
2022-09-02T03:26:17.881Z,101711.31
2022-09-02T03:28:45.637Z,101718.72
2022-09-02T03:31:21.101Z,101716.66
2022-09-02T03:33:48.003Z,101723.13
2022-09-02T03:36:31.058Z,101715.16
2022-09-02T03:38:58.832Z,101720.59
2022-09-02T03:41:25.600Z,101715.53
2022-09-02T03:43:52.163Z,101717.41
2022-09-02T03:46:19.870Z,101717.59
2022-09-02T03:48:46.516Z,101712.22
2022-09-02T03:51:13.094Z,101711.69
2022-09-02T03:53:39.725Z,101706.72
2022-09-02T03:56:08.447Z,101705.66
2022-09-02T03:58:35.385Z,101701.75
2022-09-02T04:01:03.042Z,101701.91
2022-09-02T04:03:29.667Z,101694.31
2022-09-02T04:05:56.289Z,101697.69
2022-09-02T04:08:23.446Z,101697.50
2022-09-02T04:10:50.248Z,101686.81
2022-09-02T04:13:17.526Z,101686.91
2022-09-02T04:15:48.027Z,101687.75
2022-09-02T04:18:17.288Z,101695.63
2022-09-02T04:20:44.387Z,101686.91
2022-09-02T04:23:11.370Z,101684.28
2022-09-02T04:25:44.581Z,101689.63
2022-09-02T04:28:12.903Z,101683.53
2022-09-02T04:30:40.323Z,101684.94
2022-09-02T04:33:06.868Z,101681.75
2022-09-02T04:35:35.204Z,101681.56
2022-09-02T04:38:02.987Z,101684.25
2022-09-02T04:40:29.655Z,101679.13
2022-09-02T04:42:56.201Z,101680.72
2022-09-02T04:45:26.572Z,101683.88
2022-09-02T04:47:55.661Z,101687.56
2022-09-02T04:50:22.047Z,101680.50
2022-09-02T04:52:48.450Z,101679.75
2022-09-02T04:55:14.892Z,101683.50
2022-09-02T04:57:41.281Z,101687.84
2022-09-02T05:00:09.259Z,101681.75
2022-09-02T05:02:36.025Z,101685.22
2022-09-02T05:05:02.741Z,101681.75
2022-09-02T05:07:31.111Z,101687.75
2022-09-02T05:10:01.009Z,101679.13
2022-09-02T05:12:28.144Z,101678.44
2022-09-02T05:14:57.019Z,101674.22
2022-09-02T05:17:23.633Z,101677.97
2022-09-02T05:19:50.102Z,101677.78
2022-09-02T05:22:16.913Z,101683.41
2022-09-02T05:24:43.880Z,101675.63
2022-09-02T05:27:10.302Z,101675.06
2022-09-02T05:29:37.548Z,101669.75
2022-09-02T05:32:04.812Z,101674.63
2022-09-02T05:34:33.299Z,101675.19
2022-09-02T05:36:59.681Z,101672.84
2022-09-02T05:39:26.129Z,101679.00
2022-09-02T05:41:52.740Z,101669.25
2022-09-02T05:44:19.733Z,101668.06
2022-09-02T05:46:48.892Z,101669.16
2022-09-02T05:49:18.539Z,101672.56
2022-09-02T05:51:53.060Z,101673.84
2022-09-02T05:54:30.096Z,101668.53
2022-09-02T05:56:59.778Z,101678.19
2022-09-02T05:59:28.056Z,101673.84
2022-09-02T06:01:55.140Z,101667.97
2022-09-02T06:04:22.585Z,101672.28
2022-09-02T06:06:50.204Z,101675.47
2022-09-02T06:09:19.756Z,101678.66
2022-09-02T06:11:49.306Z,101668.53
2022-09-02T06:14:18.786Z,101673.41
2022-09-02T06:16:45.851Z,101669.00
2022-09-02T06:19:17.735Z,101675.53
2022-09-02T06:21:46.605Z,101670.38
2022-09-02T06:24:13.832Z,101673.66
2022-09-02T06:26:41.352Z,101672.75
2022-09-02T06:29:08.907Z,101666.91
2022-09-02T06:31:35.560Z,101667.66
2022-09-02T06:34:03.595Z,101668.56
2022-09-02T06:36:30.734Z,101661.53
2022-09-02T06:38:58.666Z,101664.34
2022-09-02T06:41:29.359Z,101665.31
2022-09-02T06:43:58.438Z,101665.00
2022-09-02T06:46:30.451Z,101662.19
2022-09-02T06:48:56.951Z,101659.44
2022-09-02T06:51:27.787Z,101659.25
2022-09-02T06:53:54.280Z,101657.03
2022-09-02T06:56:21.309Z,101654.41
2022-09-02T06:58:47.871Z,101659.78
2022-09-02T07:01:22.500Z,101655.56
2022-09-02T07:04:07.454Z,101652.88
2022-09-02T07:06:37.927Z,101653.72
2022-09-02T07:09:06.109Z,101655.94
2022-09-02T07:11:33.397Z,101653.50
2022-09-02T07:14:03.175Z,101653.06
2022-09-02T07:16:36.687Z,101650.97
2022-09-02T07:19:05.655Z,101650.72
2022-09-02T07:21:36.285Z,101647.75
2022-09-02T07:24:02.974Z,101651.44
2022-09-02T07:26:29.573Z,101643.53
2022-09-02T07:28:56.244Z,101642.59
2022-09-02T07:31:27.532Z,101648.59
2022-09-02T07:33:58.801Z,101648.59
2022-09-02T07:36:31.447Z,101643.63
2022-09-02T07:38:58.190Z,101644.22
2022-09-02T07:41:25.242Z,101644.03
2022-09-02T07:43:52.124Z,101640.66
2022-09-02T07:46:20.650Z,101641.97
2022-09-02T07:48:50.509Z,101639.88
2022-09-02T07:51:19.051Z,101643.50
2022-09-02T07:53:46.040Z,101638.84
2022-09-02T07:56:14.008Z,101633.56
2022-09-02T07:58:43.229Z,101634.63
2022-09-02T08:01:11.139Z,101633.63
2022-09-02T08:03:39.563Z,101634.69
2022-09-02T08:06:09.890Z,101632.88
2022-09-02T08:08:37.017Z,101629.81
2022-09-02T08:11:04.687Z,101627.34
2022-09-02T08:13:31.302Z,101629.63
2022-09-02T08:15:57.754Z,101626.94
2022-09-02T08:18:24.946Z,101621.19
2022-09-02T08:20:51.337Z,101624.69
2022-09-02T08:23:33.620Z,101619.81
2022-09-02T08:26:04.203Z,101622.00
2022-09-02T08:28:32.029Z,101620.66
2022-09-02T08:30:59.167Z,101620.38
2022-09-02T08:33:25.825Z,101610.44
2022-09-02T08:35:52.295Z,101613.53
2022-09-02T08:38:18.813Z,101605.63
2022-09-02T08:40:45.895Z,101605.13
2022-09-02T08:43:42.977Z,101602.22
2022-09-02T08:46:15.035Z,101604.72
2022-09-02T08:48:59.391Z,101605.44
2022-09-02T08:51:37.293Z,101602.69
2022-09-02T08:54:15.981Z,101600.03
2022-09-02T08:56:42.461Z,101603.00
2022-09-02T08:59:10.046Z,101600.31
2022-09-02T09:02:03.039Z,101596.00
2022-09-02T09:04:55.146Z,101593.28
2022-09-02T09:07:33.659Z,101596.53
2022-09-02T09:10:04.607Z,101596.38
2022-09-02T09:12:40.220Z,101593.50
2022-09-02T09:15:23.332Z,101594.06
2022-09-02T09:17:54.137Z,101586.84
2022-09-02T09:20:25.049Z,101592.56
2022-09-02T09:22:56.750Z,101594.56
2022-09-02T09:25:32.600Z,101585.50
2022-09-02T09:28:00.377Z,101596.09
2022-09-02T09:30:28.520Z,101589.25
2022-09-02T09:32:57.748Z,101593.34
2022-09-02T09:35:24.881Z,101581.34
2022-09-02T09:37:53.607Z,101583.47
2022-09-02T09:40:26.021Z,101581.09
2022-09-02T09:43:14.249Z,101581.81
2022-09-02T09:45:44.247Z,101578.75
2022-09-02T09:48:30.043Z,101577.53
2022-09-02T09:50:56.948Z,101574.19
2022-09-02T09:53:28.397Z,101574.09
2022-09-02T09:56:01.467Z,101573.56
2022-09-02T09:58:41.571Z,101569.16
2022-09-02T10:01:32.816Z,101574.19
2022-09-02T10:04:20.718Z,101573.81
2022-09-02T10:06:53.856Z,101576.50
2022-09-02T10:09:20.165Z,101561.81
2022-09-02T10:11:59.978Z,101567.72
2022-09-02T10:14:35.858Z,101564.75
2022-09-02T10:17:26.878Z,101562.81
2022-09-02T10:20:11.937Z,101558.03
2022-09-02T10:23:00.025Z,101556.94
2022-09-02T10:25:34.399Z,101556.81
2022-09-02T10:28:11.253Z,101554.44
2022-09-02T10:30:55.531Z,101557.50
2022-09-02T10:33:57.267Z,101548.13
2022-09-02T10:36:27.703Z,101539.84
2022-09-02T10:38:59.711Z,101552.22
2022-09-02T10:41:32.107Z,101537.78
2022-09-02T10:44:17.695Z,101538.59
2022-09-02T10:47:00.546Z,101531.56
2022-09-02T10:49:46.092Z,101535.75
2022-09-02T10:52:28.461Z,101529.16
2022-09-02T10:55:37.833Z,101531.34
2022-09-02T10:58:10.495Z,101523.72
2022-09-02T11:00:41.986Z,101520.50
2022-09-02T11:03:27.586Z,101520.94
2022-09-02T11:05:58.539Z,101511.47
2022-09-02T11:08:43.777Z,101517.75
2022-09-02T11:11:40.258Z,101517.03
2022-09-02T11:14:27.607Z,101522.38
2022-09-02T11:17:13.197Z,101515.81
2022-09-02T11:19:52.123Z,101514.81
2022-09-02T11:22:39.018Z,101514.28
2022-09-02T11:25:16.338Z,101515.81
2022-09-02T11:27:53.529Z,101505.34
2022-09-02T11:30:23.182Z,101506.88
2022-09-02T11:32:57.174Z,101498.97
2022-09-02T11:35:27.874Z,101490.56
2022-09-02T11:38:03.769Z,101496.28
2022-09-02T11:40:39.569Z,101494.44
2022-09-02T11:43:37.160Z,101492.00
2022-09-02T11:46:36.786Z,101491.56
2022-09-02T11:49:24.463Z,101483.66
2022-09-02T11:51:58.717Z,101484.66
2022-09-02T11:54:35.867Z,101470.97
2022-09-02T11:57:06.650Z,101474.97
2022-09-02T11:59:51.297Z,101468.03
2022-09-02T12:02:43.408Z,101470.22
2022-09-02T12:05:32.137Z,101468.09
2022-09-02T12:08:12.049Z,101459.56
2022-09-02T12:10:48.351Z,101471.25
2022-09-02T12:13:39.237Z,101473.41
2022-09-02T12:16:24.134Z,101454.09
2022-09-02T12:18:54.016Z,101455.44
2022-09-02T12:21:23.271Z,101450.44
2022-09-02T12:23:55.809Z,101455.44
2022-09-02T12:26:50.317Z,101446.59
2022-09-02T12:29:24.605Z,101451.25
2022-09-02T12:31:57.438Z,101444.59
2022-09-02T12:34:23.770Z,101447.38
2022-09-02T12:36:52.028Z,101447.06
2022-09-02T12:39:25.411Z,101448.75
2022-09-02T12:42:13.045Z,101451.09
2022-09-02T12:45:05.476Z,101446.72
2022-09-02T12:47:46.412Z,101447.91
2022-09-02T12:50:25.165Z,101442.25
2022-09-02T12:53:07.357Z,101438.03
2022-09-02T12:55:35.214Z,101453.50
2022-09-02T12:58:17.051Z,101444.97
2022-09-02T13:00:46.268Z,101443.91
2022-09-02T13:03:39.133Z,101443.00
2022-09-02T13:06:17.987Z,101441.81
2022-09-02T13:08:47.143Z,101435.44
2022-09-02T13:11:41.692Z,101436.41
2022-09-02T13:14:20.107Z,101430.69
2022-09-02T13:17:05.078Z,101434.19
2022-09-02T13:20:07.563Z,101431.00
2022-09-02T13:23:31.197Z,101438.66
2022-09-02T13:26:48.999Z,101431.28
2022-09-02T13:29:36.193Z,101423.38
2022-09-02T13:32:17.467Z,101428.56
2022-09-02T13:34:46.610Z,101418.78
2022-09-02T13:37:36.755Z,101417.56
2022-09-02T13:40:23.535Z,101416.13
2022-09-02T13:42:51.497Z,101411.97
2022-09-02T13:45:25.679Z,101408.97
2022-09-02T13:47:54.794Z,101405.84
2022-09-02T13:50:24.494Z,101403.72
2022-09-02T13:53:49.365Z,101393.03
2022-09-02T13:55:52.731Z,101393.38
2022-09-02T13:58:32.885Z,101392.88
2022-09-02T14:01:18.564Z,101380.09
2022-09-02T14:03:48.664Z,101379.41
2022-09-02T14:06:17.378Z,101377.34
2022-09-02T14:08:44.967Z,101379.16
2022-09-02T14:11:18.530Z,101378.19
2022-09-02T14:13:49.391Z,101375.00
2022-09-02T14:16:33.453Z,101366.75
2022-09-02T14:19:14.378Z,101373.22
2022-09-02T14:21:53.360Z,101365.06
2022-09-02T14:24:28.807Z,101350.53
2022-09-02T14:26:57.782Z,101363.31
2022-09-02T14:29:27.087Z,101359.59
2022-09-02T14:32:11.142Z,101348.84
2022-09-02T14:34:43.532Z,101352.97
2022-09-02T14:37:25.540Z,101351.00
2022-09-02T14:40:12.685Z,101348.75
2022-09-02T14:42:56.632Z,101348.34
2022-09-02T14:45:27.213Z,101349.13
2022-09-02T14:47:55.353Z,101342.88
2022-09-02T14:50:27.499Z,101344.41
2022-09-02T14:53:05.926Z,101338.13
2022-09-02T14:55:44.413Z,101347.94
2022-09-02T14:58:16.893Z,101340.13
2022-09-02T15:00:55.443Z,101335.81
2022-09-02T15:03:22.923Z,101336.19
2022-09-02T15:05:50.196Z,101339.09
2022-09-02T15:08:16.743Z,101334.31
2022-09-02T15:10:44.939Z,101330.28
2022-09-02T15:13:20.049Z,101330.53
2022-09-02T15:15:47.095Z,101332.75
2022-09-02T15:18:14.175Z,101325.63
2022-09-02T15:20:40.649Z,101317.63
2022-09-02T15:23:21.356Z,101320.13
2022-09-02T15:25:48.090Z,101322.97
2022-09-02T15:28:17.110Z,101314.00
2022-09-02T15:30:43.528Z,101306.81
2022-09-02T15:33:14.659Z,101321.16
2022-09-02T15:35:47.511Z,101310.97
2022-09-02T15:38:14.179Z,101310.00
2022-09-02T15:40:41.681Z,101301.66
2022-09-02T15:43:08.042Z,101303.16
2022-09-02T15:45:35.104Z,101297.47
2022-09-02T15:48:01.824Z,101298.34
2022-09-02T15:50:31.880Z,101294.81
2022-09-02T15:52:58.484Z,101298.16
2022-09-02T15:55:29.566Z,101290.34
2022-09-02T15:57:56.501Z,101297.16
2022-09-02T16:00:23.412Z,101288.50
2022-09-02T16:02:54.789Z,101287.53
2022-09-02T16:05:21.747Z,101285.53
2022-09-02T16:07:48.522Z,101285.00
2022-09-02T16:10:15.182Z,101280.97
2022-09-02T16:12:42.034Z,101280.97
2022-09-02T16:15:09.691Z,101277.81
2022-09-02T16:17:36.155Z,101273.84
2022-09-02T16:20:04.723Z,101272.31
2022-09-02T16:22:31.187Z,101261.66
2022-09-02T16:24:57.644Z,101264.97
2022-09-02T16:27:44.001Z,101274.00
2022-09-02T16:30:10.889Z,101269.63
2022-09-02T16:32:37.812Z,101261.00
2022-09-02T16:35:04.796Z,101266.66
2022-09-02T16:37:31.183Z,101260.81
2022-09-02T16:39:57.772Z,101257.47
2022-09-02T16:42:24.672Z,101252.34
2022-09-02T16:44:51.849Z,101254.63
2022-09-02T16:47:18.627Z,101256.66
2022-09-02T16:49:46.285Z,101251.81
2022-09-02T16:52:13.399Z,101247.16
2022-09-02T16:54:41.040Z,101245.81
2022-09-02T16:57:08.095Z,101241.00
2022-09-02T16:59:34.510Z,101243.66
2022-09-02T17:02:01.584Z,101244.47
2022-09-02T17:04:28.058Z,101241.63
2022-09-02T17:06:56.778Z,101242.31
2022-09-02T17:09:23.294Z,101240.81
2022-09-02T17:11:50.118Z,101238.78
2022-09-02T17:14:21.567Z,101241.09
2022-09-02T17:16:50.811Z,101242.41
2022-09-02T17:19:22.056Z,101234.56
2022-09-02T17:21:54.535Z,101232.41
2022-09-02T17:24:23.870Z,101235.91
2022-09-02T17:26:54.186Z,101231.91
2022-09-02T17:32:09.503Z,101233.72
2022-09-02T17:34:36.778Z,101237.19
2022-09-02T17:37:03.182Z,101241.34
2022-09-02T17:39:30.508Z,101240.31
2022-09-02T17:41:59.949Z,101242.16
2022-09-02T17:44:34.433Z,101243.81
2022-09-02T17:47:05.844Z,101239.50
2022-09-02T17:49:33.536Z,101232.16
2022-09-02T17:52:00.041Z,101236.50
2022-09-02T17:54:30.229Z,101232.63
2022-09-02T17:57:07.462Z,101237.75
2022-09-02T18:00:00.418Z,101247.53
2022-09-02T18:02:36.159Z,101242.66
2022-09-02T18:05:29.117Z,101245.78
2022-09-02T18:08:17.231Z,101238.28
2022-09-02T18:10:59.286Z,101243.41
2022-09-02T18:14:00.282Z,101245.88
2022-09-02T18:16:36.600Z,101241.16
2022-09-02T18:19:46.609Z,101235.16
2022-09-02T18:22:35.959Z,101236.63
2022-09-02T18:25:18.941Z,101245.41
2022-09-02T18:27:45.502Z,101233.88
2022-09-02T18:30:38.376Z,101240.66
2022-09-02T18:33:15.099Z,101240.09
2022-09-02T18:35:56.249Z,101241.59
2022-09-02T18:38:45.319Z,101245.53
2022-09-02T18:41:28.527Z,101239.56
2022-09-02T18:44:32.008Z,101248.38
2022-09-02T18:47:03.241Z,101252.97
2022-09-02T18:49:33.872Z,101250.31
2022-09-02T18:52:02.310Z,101249.22
2022-09-02T18:54:37.098Z,101243.09
2022-09-02T18:57:07.983Z,101248.09
2022-09-02T18:59:42.983Z,101242.94
2022-09-02T19:02:20.340Z,101244.44
2022-09-02T19:04:46.784Z,101238.75
2022-09-02T19:07:32.348Z,101252.25
2022-09-02T19:10:03.772Z,101252.72
2022-09-02T19:12:33.777Z,101258.63
2022-09-02T19:15:01.465Z,101250.94
2022-09-02T19:17:28.046Z,101256.44
2022-09-02T19:19:54.453Z,101261.19
2022-09-02T19:22:23.608Z,101267.31
2022-09-02T19:24:57.815Z,101262.47
2022-09-02T19:27:30.499Z,101258.59
2022-09-02T19:30:07.512Z,101265.28
2022-09-02T19:32:36.697Z,101261.66
2022-09-02T19:35:08.796Z,101263.81
2022-09-02T19:37:44.267Z,101262.69
2022-09-02T19:40:12.166Z,101258.66
2022-09-02T19:42:38.718Z,101264.03
2022-09-02T19:45:05.496Z,101267.38
2022-09-02T19:50:20.529Z,101260.69
2022-09-02T19:52:49.339Z,101260.88
2022-09-02T19:55:17.881Z,101258.91
2022-09-02T19:57:45.495Z,101257.78
2022-09-02T20:00:13.426Z,101260.75
2022-09-02T20:02:40.469Z,101267.19
2022-09-02T20:05:12.696Z,101266.19
2022-09-02T20:07:39.710Z,101266.03
2022-09-02T20:10:07.110Z,101270.38
2022-09-02T20:12:35.880Z,101258.50
2022-09-02T20:15:04.759Z,101268.59
2022-09-02T20:17:31.890Z,101262.03
2022-09-02T20:20:01.312Z,101264.97
2022-09-02T20:22:32.577Z,101264.69
2022-09-02T20:24:59.707Z,101266.06
2022-09-02T20:27:45.512Z,101270.56
2022-09-02T20:30:20.094Z,101266.78
2022-09-02T20:32:55.061Z,101268.31
2022-09-02T20:36:02.095Z,101263.03
2022-09-02T20:38:34.316Z,101264.69
2022-09-02T20:41:39.900Z,101270.41
2022-09-02T20:44:34.509Z,101262.47
2022-09-02T20:47:20.016Z,101265.53
2022-09-02T20:50:03.013Z,101264.28
2022-09-02T20:52:37.069Z,101261.19
2022-09-02T20:55:14.462Z,101259.25
2022-09-02T20:58:30.416Z,101264.13
2022-09-02T21:01:08.917Z,101267.22
2022-09-02T21:03:47.175Z,101261.34
2022-09-02T21:06:14.126Z,101257.03
2022-09-02T21:08:49.816Z,101250.44
2022-09-02T21:11:20.138Z,101258.50
2022-09-02T21:14:05.128Z,101256.84
2022-09-02T21:16:52.318Z,101255.72
2022-09-02T21:19:29.093Z,101257.25
2022-09-02T21:22:24.801Z,101247.47
2022-09-02T21:24:57.461Z,101252.50
2022-09-02T21:27:27.255Z,101257.66
2022-09-02T21:30:06.681Z,101249.44
2022-09-02T21:32:39.122Z,101248.44
2022-09-02T21:35:09.420Z,101253.03
2022-09-02T21:37:39.574Z,101249.50
2022-09-02T21:40:18.613Z,101242.97
2022-09-02T21:43:18.787Z,101239.09
2022-09-02T21:45:59.612Z,101249.69
2022-09-02T21:48:36.286Z,101237.81
2022-09-02T21:51:33.701Z,101244.91
2022-09-02T21:54:14.258Z,101241.69
2022-09-02T21:57:10.019Z,101250.63
2022-09-02T21:59:36.332Z,101244.19
2022-09-02T22:02:10.585Z,101248.09
2022-09-02T22:04:57.770Z,101239.47
2022-09-02T22:07:42.035Z,101239.56
2022-09-02T22:10:17.321Z,101240.41
2022-09-02T22:12:52.203Z,101240.94
2022-09-02T22:15:33.445Z,101238.28
2022-09-02T22:18:16.512Z,101233.00
2022-09-02T22:20:44.969Z,101234.34
2022-09-02T22:23:23.351Z,101231.28
2022-09-02T22:25:50.413Z,101227.31
2022-09-02T22:28:27.000Z,101230.69
2022-09-02T22:31:00.101Z,101230.25
2022-09-02T22:33:33.841Z,101229.53
2022-09-02T22:36:45.301Z,101230.78
2022-09-02T22:39:16.207Z,101233.13
2022-09-02T22:42:04.138Z,101219.50
2022-09-02T22:45:03.617Z,101217.97
2022-09-02T22:47:55.978Z,101230.88
2022-09-02T22:50:49.308Z,101222.63
2022-09-02T22:53:17.213Z,101219.53
2022-09-02T22:56:02.425Z,101224.56
2022-09-02T22:59:04.156Z,101219.81
2022-09-02T23:01:53.535Z,101221.59
2022-09-02T23:04:28.699Z,101220.16
2022-09-02T23:06:55.318Z,101219.72
2022-09-02T23:09:21.713Z,101222.66
2022-09-02T23:11:51.111Z,101226.00
2022-09-02T23:14:31.964Z,101216.97
2022-09-02T23:17:20.575Z,101225.22
2022-09-02T23:19:56.377Z,101220.63
2022-09-02T23:22:51.454Z,101211.06
2022-09-02T23:25:37.653Z,101214.31
2022-09-02T23:28:16.925Z,101212.63
2022-09-02T23:30:46.007Z,101213.88
2022-09-02T23:33:43.101Z,101208.59
2022-09-02T23:36:21.470Z,101209.13
2022-09-02T23:39:31.495Z,101214.41
2022-09-02T23:42:02.315Z,101206.59
2022-09-02T23:44:29.880Z,101202.88
2022-09-02T23:47:11.154Z,101206.25
2022-09-02T23:50:05.333Z,101200.13
2022-09-02T23:52:45.524Z,101200.03
2022-09-02T23:55:38.635Z,101201.25
2022-09-02T23:58:35.749Z,101192.38
